Time;durP1;ratioP1;P1;durP2;ratioP2;P2;SDS_P1;SDS_P2;PMS_P1;PMS_P2;Temp;Humidity;BMP_temperature;BMP_pressure;BME280_temperature;BME280_humidity;BME280_pressure;Samples;Min_cycle;Max_cycle;Signal;HPM_P1;HPM_P2
2022/04/28 00:01:13;;;;;;;11.70;11.30;;;7.00;99.90;;;;;;5081261;28;20226;-79
2022/04/28 00:03:44;;;;;;;12.10;11.70;;;7.00;99.90;;;;;;5080787;28;20234;-80
2022/04/28 00:06:12;;;;;;;12.00;11.60;;;6.90;99.90;;;;;;5080665;28;20230;-80
2022/04/28 00:08:41;;;;;;;11.60;11.20;;;6.90;99.90;;;;;;5080676;28;20226;-80
2022/04/28 00:11:11;;;;;;;12.00;11.60;;;6.80;99.90;;;;;;5081210;28;20254;-80
2022/04/28 00:13:39;;;;;;;11.90;11.50;;;6.80;99.90;;;;;;5080388;28;20237;-80
2022/04/28 00:16:09;;;;;;;11.67;11.27;;;6.80;99.90;;;;;;5080717;28;20241;-80
2022/04/28 00:18:38;;;;;;;11.60;11.20;;;6.70;99.90;;;;;;5080831;28;20221;-80
2022/04/28 00:21:16;;;;;;;11.70;11.30;;;6.70;99.90;;;;;;5081141;28;20249;-79
2022/04/28 00:23:46;;;;;;;11.57;11.17;;;6.70;99.90;;;;;;5080237;28;20238;-80
2022/04/28 00:26:15;;;;;;;11.47;11.07;;;6.60;99.90;;;;;;5080493;28;20229;-80
2022/04/28 00:28:45;;;;;;;11.53;11.13;;;6.60;99.90;;;;;;5080811;28;20767;-79
2022/04/28 00:31:14;;;;;;;11.83;11.43;;;6.60;99.90;;;;;;5080809;28;20234;-79
2022/04/28 00:33:48;;;;;;;11.67;11.27;;;6.50;99.90;;;;;;5081966;28;20233;-80
2022/04/28 00:39:00;;;;;;;11.70;11.30;;;6.50;99.90;;;;;;5081280;28;20229;-80
2022/04/28 00:41:30;;;;;;;11.77;11.37;;;6.40;99.90;;;;;;5081578;28;20260;-80
2022/04/28 00:43:59;;;;;;;12.00;11.60;;;6.40;99.90;;;;;;5080803;28;20237;-79
2022/04/28 00:46:28;;;;;;;11.87;11.47;;;6.40;99.90;;;;;;5080699;28;20233;-79
2022/04/28 00:51:47;;;;;;;11.60;11.20;;;6.30;99.90;;;;;;5080808;28;20214;-80
2022/04/28 00:54:15;;;;;;;11.90;11.50;;;6.30;99.90;;;;;;5081325;28;20284;-79
2022/04/28 00:56:44;;;;;;;11.67;11.27;;;6.30;99.90;;;;;;5080537;28;20234;-80
2022/04/28 00:59:14;;;;;;;11.80;11.40;;;6.30;99.90;;;;;;5080002;28;20230;-80
2022/04/28 01:01:43;;;;;;;12.00;11.60;;;6.20;99.90;;;;;;5080469;28;20234;-79
2022/04/28 01:04:13;;;;;;;12.00;11.60;;;6.10;99.90;;;;;;5079628;28;20240;-79
2022/04/28 01:06:45;;;;;;;12.00;11.60;;;6.10;99.90;;;;;;5080057;28;20238;-79
2022/04/28 01:09:12;;;;;;;11.90;11.50;;;6.10;99.90;;;;;;5080219;28;20234;-80
2022/04/28 01:11:44;;;;;;;11.80;11.40;;;6.00;99.90;;;;;;5080305;28;20230;-79
2022/04/28 01:14:11;;;;;;;11.80;11.40;;;6.00;99.90;;;;;;5084956;28;20226;-79
2022/04/28 01:16:39;;;;;;;11.63;11.23;;;5.90;99.90;;;;;;5091846;28;20218;-79
2022/04/28 01:19:07;;;;;;;11.97;11.57;;;5.90;99.90;;;;;;5086388;28;20241;-80
2022/04/28 01:21:56;;;;;;;11.70;11.30;;;5.80;99.90;;;;;;5081783;28;20226;-80
2022/04/28 01:24:25;;;;;;;11.70;11.30;;;5.80;99.90;;;;;;5080931;28;20235;-80
2022/04/28 01:26:56;;;;;;;11.77;11.37;;;5.80;99.90;;;;;;5084894;28;20252;-80
2022/04/28 01:29:24;;;;;;;11.90;11.50;;;5.70;99.90;;;;;;5084740;28;20249;-80
2022/04/28 01:31:53;;;;;;;11.90;11.50;;;5.70;99.90;;;;;;5086669;28;20252;-80
2022/04/28 01:34:26;;;;;;;11.97;11.57;;;5.70;99.90;;;;;;5085177;28;20230;-79
2022/04/28 01:36:57;;;;;;;11.97;11.57;;;5.60;99.90;;;;;;5089342;28;20234;-79
2022/04/28 01:39:26;;;;;;;11.87;11.47;;;5.50;99.90;;;;;;5082641;28;20218;-80
2022/04/28 01:41:54;;;;;;;11.80;11.40;;;5.50;99.90;;;;;;5081964;28;20230;-79
2022/04/28 01:44:23;;;;;;;11.90;11.50;;;5.40;99.90;;;;;;5080904;28;20311;-80
2022/04/28 01:46:52;;;;;;;11.70;11.30;;;5.40;99.90;;;;;;5080469;28;20230;-80
2022/04/28 01:49:21;;;;;;;11.73;11.33;;;5.40;99.90;;;;;;5080320;28;20227;-80
2022/04/28 01:57:42;;;;;;;11.80;11.40;;;5.40;99.90;;;;;;5079417;28;20237;-79
2022/04/28 02:00:12;;;;;;;11.60;11.20;;;5.40;99.90;;;;;;5081116;28;20292;-80
2022/04/28 02:02:42;;;;;;;11.63;11.23;;;5.40;99.90;;;;;;5083284;28;20238;-79
2022/04/28 02:05:11;;;;;;;11.63;11.23;;;5.40;99.90;;;;;;5082626;28;20234;-80
2022/04/28 02:07:41;;;;;;;11.90;11.50;;;5.40;99.90;;;;;;5082865;28;20241;-79
2022/04/28 02:12:57;;;;;;;11.90;11.50;;;5.40;99.90;;;;;;5082210;28;20300;-80
2022/04/28 02:15:26;;;;;;;11.83;11.43;;;5.40;99.90;;;;;;5083251;28;20222;-80
2022/04/28 02:17:55;;;;;;;11.80;11.40;;;5.30;99.90;;;;;;5082665;28;20242;-80
2022/04/28 02:20:26;;;;;;;11.80;11.40;;;5.40;99.90;;;;;;5082511;28;20250;-79
2022/04/28 02:22:55;;;;;;;11.63;11.23;;;5.30;99.90;;;;;;5082845;28;20242;-80
2022/04/28 02:25:26;;;;;;;11.80;11.40;;;5.20;99.90;;;;;;5082827;28;20280;-80
2022/04/28 02:27:55;;;;;;;12.00;11.60;;;5.10;99.90;;;;;;5082697;28;20229;-80
2022/04/28 02:30:23;;;;;;;11.90;11.50;;;5.10;99.90;;;;;;5081983;28;20233;-80
2022/04/28 02:35:40;;;;;;;11.50;11.10;;;5.10;99.90;;;;;;5082624;28;20218;-79
2022/04/28 02:38:09;;;;;;;11.67;11.27;;;5.10;99.90;;;;;;5081890;28;20237;-80
2022/04/28 02:40:47;;;;;;;11.47;11.07;;;5.10;99.90;;;;;;5082045;28;20272;-79
2022/04/28 02:43:16;;;;;;;11.50;11.10;;;5.00;99.90;;;;;;5082350;28;20246;-80
2022/04/28 02:45:46;;;;;;;11.73;11.33;;;5.00;99.90;;;;;;5082102;28;20222;-80
2022/04/28 02:48:15;;;;;;;11.70;11.30;;;5.00;99.90;;;;;;5081538;28;20285;-80
2022/04/28 02:50:45;;;;;;;11.30;10.90;;;4.90;99.90;;;;;;5081851;28;20222;-79
2022/04/28 02:53:14;;;;;;;11.70;11.30;;;4.90;99.90;;;;;;5081186;28;20249;-80
2022/04/28 02:55:52;;;;;;;11.80;11.40;;;4.90;99.90;;;;;;5081646;28;20646;-79
2022/04/28 02:58:22;;;;;;;11.57;11.17;;;4.80;99.90;;;;;;5081412;28;20226;-80
2022/04/28 03:00:51;;;;;;;11.47;11.07;;;4.80;99.90;;;;;;5081590;28;20227;-80
2022/04/28 03:03:22;;;;;;;11.70;11.30;;;4.80;99.90;;;;;;5082578;28;20234;-79
2022/04/28 03:11:36;;;;;;;11.80;11.40;;;4.70;99.90;;;;;;5093916;28;20215;-79
2022/04/28 03:14:04;;;;;;;11.30;10.90;;;4.70;99.90;;;;;;5088156;28;20234;-79
2022/04/28 03:16:32;;;;;;;11.40;11.00;;;4.70;99.90;;;;;;5083276;28;20261;-79
2022/04/28 03:19:01;;;;;;;11.60;11.20;;;4.70;99.90;;;;;;5082251;28;20256;-80
2022/04/28 03:21:31;;;;;;;11.63;11.23;;;4.60;99.90;;;;;;5082258;28;20231;-80
2022/04/28 03:24:00;;;;;;;11.53;11.13;;;4.60;99.90;;;;;;5081440;28;20241;-79
2022/04/28 03:26:39;;;;;;;11.37;10.97;;;4.70;99.90;;;;;;5081913;28;20238;-79
2022/04/28 03:29:08;;;;;;;11.70;11.30;;;4.60;99.90;;;;;;5080976;28;20234;-79
2022/04/28 03:31:37;;;;;;;11.80;11.40;;;4.60;99.90;;;;;;5081137;28;20244;-80
2022/04/28 03:34:09;;;;;;;11.67;11.27;;;4.50;99.90;;;;;;5080941;28;20308;-79
2022/04/28 03:36:56;;;;;;;12.20;11.80;;;4.50;99.90;;;;;;5081475;28;20234;-80
2022/04/28 03:39:25;;;;;;;12.30;11.90;;;4.50;99.90;;;;;;5081429;28;20234;-80
2022/04/28 03:44:41;;;;;;;12.47;12.07;;;4.40;99.90;;;;;;5081299;28;20294;-79
2022/04/28 03:47:11;;;;;;;12.70;12.30;;;4.40;99.90;;;;;;5081629;28;20238;-80
2022/04/28 03:49:40;;;;;;;12.47;12.07;;;4.30;99.90;;;;;;5081456;28;20238;-79
2022/04/28 03:52:09;;;;;;;12.50;12.10;;;4.30;99.90;;;;;;5082052;28;20325;-79
2022/04/28 03:54:39;;;;;;;12.03;11.63;;;4.30;99.90;;;;;;5082285;28;20288;-79
2022/04/28 03:59:55;;;;;;;12.33;11.93;;;4.30;99.90;;;;;;5080834;28;20230;-80
2022/04/28 04:02:25;;;;;;;12.27;11.87;;;4.30;99.90;;;;;;5080804;28;20234;-80
2022/04/28 04:04:54;;;;;;;11.87;11.47;;;4.20;99.90;;;;;;5091542;28;20241;-79
2022/04/28 04:07:24;;;;;;;12.00;11.60;;;4.20;99.90;;;;;;5090205;28;20234;-79
2022/04/28 04:09:53;;;;;;;12.33;11.93;;;4.20;99.90;;;;;;5083134;28;20242;-79
2022/04/28 04:12:31;;;;;;;12.10;11.70;;;4.10;99.90;;;;;;5081756;28;20226;-79
2022/04/28 04:15:01;;;;;;;12.10;11.70;;;4.00;99.90;;;;;;5081498;28;21064;-80
2022/04/28 04:17:30;;;;;;;12.43;12.03;;;4.00;99.90;;;;;;5081108;28;20234;-79
2022/04/28 04:20:00;;;;;;;12.47;12.07;;;4.00;99.90;;;;;;5080829;28;20222;-80
2022/04/28 04:22:29;;;;;;;12.60;12.20;;;3.90;99.90;;;;;;5080284;28;20234;-79
2022/04/28 04:24:59;;;;;;;12.60;12.20;;;3.90;99.90;;;;;;5081221;28;20249;-79
2022/04/28 04:27:37;;;;;;;12.57;12.17;;;3.90;99.90;;;;;;5082168;28;20229;-79
2022/04/28 04:32:54;;;;;;;12.90;12.50;;;4.00;99.90;;;;;;5097347;28;20317;-79
2022/04/28 04:35:23;;;;;;;12.60;12.20;;;4.00;99.90;;;;;;5099944;28;20233;-79
2022/04/28 04:37:53;;;;;;;12.47;12.07;;;4.00;99.90;;;;;;5098642;28;20282;-79
2022/04/28 04:40:22;;;;;;;12.73;12.33;;;4.00;99.90;;;;;;5100808;28;21031;-79
2022/04/28 04:43:05;;;;;;;12.80;12.40;;;4.00;99.90;;;;;;5100289;28;20258;-79
2022/04/28 04:48:17;;;;;;;12.50;12.10;;;4.00;99.90;;;;;;5098626;28;20226;-78
2022/04/28 04:50:47;;;;;;;12.60;12.20;;;4.10;99.90;;;;;;5098814;28;20317;-79
2022/04/28 04:53:16;;;;;;;12.30;11.90;;;4.10;99.90;;;;;;5096909;28;20230;-78
2022/04/28 04:55:45;;;;;;;12.43;12.03;;;4.20;99.90;;;;;;5096930;28;20228;-79
2022/04/28 04:58:23;;;;;;;12.70;12.30;;;4.20;99.90;;;;;;5089342;28;20279;-79
2022/04/28 05:00:52;;;;;;;12.43;12.03;;;4.30;99.90;;;;;;5088345;28;20241;-79
2022/04/28 05:03:20;;;;;;;12.53;12.13;;;4.30;99.90;;;;;;5087928;28;20210;-79
2022/04/28 05:05:48;;;;;;;13.00;12.50;;;4.40;99.90;;;;;;5086132;28;20233;-79
2022/04/28 05:10:59;;;;;;;12.70;12.30;;;4.50;99.90;;;;;;5081268;28;20249;-80
2022/04/28 05:13:31;;;;;;;12.63;12.23;;;4.60;99.90;;;;;;5081237;28;20234;-80
2022/04/28 05:15:59;;;;;;;12.40;12.00;;;4.60;99.90;;;;;;5083871;28;20229;-80
2022/04/28 05:18:29;;;;;;;12.60;12.20;;;4.70;99.90;;;;;;5085577;28;20284;-80
2022/04/28 05:20:57;;;;;;;12.97;12.47;;;4.80;99.90;;;;;;5085043;28;20211;-80
2022/04/28 05:23:27;;;;;;;12.40;12.00;;;4.90;99.90;;;;;;5084220;28;20280;-80
2022/04/28 05:25:56;;;;;;;12.50;12.10;;;5.10;99.90;;;;;;5083282;28;20234;-80
2022/04/28 05:31:12;;;;;;;12.50;12.10;;;5.30;99.90;;;;;;5083071;28;20749;-80
2022/04/28 05:33:43;;;;;;;12.90;12.40;;;5.40;99.90;;;;;;5083480;28;20294;-80
2022/04/28 05:36:12;;;;;;;12.87;12.47;;;5.50;99.90;;;;;;5086063;28;20293;-80
2022/04/28 05:38:43;;;;;;;12.50;12.10;;;5.70;99.90;;;;;;5085700;28;20233;-80
2022/04/28 05:41:14;;;;;;;12.30;11.90;;;5.80;99.90;;;;;;5085346;28;20234;-81
2022/04/28 05:46:39;;;;;;;12.70;12.30;;;6.10;99.90;;;;;;5085081;28;20293;-81
2022/04/28 05:49:07;;;;;;;12.50;12.10;;;6.40;99.90;;;;;;5086133;28;20253;-81
2022/04/28 05:51:46;;;;;;;12.40;12.00;;;6.50;99.90;;;;;;5084360;28;20230;-83
2022/04/28 05:54:14;;;;;;;12.37;11.97;;;6.60;99.90;;;;;;5083696;28;20226;-82
2022/04/28 05:56:44;;;;;;;12.43;12.03;;;6.80;99.90;;;;;;5084288;28;20222;-80
2022/04/28 05:59:16;;;;;;;11.97;11.57;;;6.90;99.90;;;;;;5085240;28;20241;-81
2022/04/28 06:01:44;;;;;;;12.20;11.80;;;7.00;99.90;;;;;;5084092;28;20225;-81
2022/04/28 06:04:12;;;;;;;12.20;11.80;;;7.10;99.90;;;;;;5085122;28;20229;-81
2022/04/28 06:06:41;;;;;;;12.30;11.90;;;7.20;99.90;;;;;;5084848;28;20284;-81
2022/04/28 06:09:11;;;;;;;12.13;11.73;;;7.20;99.90;;;;;;5092595;28;20333;-81
2022/04/28 06:11:41;;;;;;;12.13;11.73;;;7.30;99.90;;;;;;5088814;28;20238;-81
2022/04/28 06:14:10;;;;;;;12.00;11.60;;;7.40;99.90;;;;;;5085516;28;20257;-81
2022/04/28 06:16:42;;;;;;;12.00;11.60;;;7.50;99.90;;;;;;5084636;28;20337;-81
2022/04/28 06:19:10;;;;;;;11.63;11.23;;;7.60;99.90;;;;;;5084860;28;20317;-81
2022/04/28 06:21:38;;;;;;;11.93;11.53;;;7.70;99.90;;;;;;5083942;28;20272;-81
2022/04/28 06:24:07;;;;;;;11.80;11.40;;;7.80;99.90;;;;;;5084368;28;20237;-81
2022/04/28 06:26:37;;;;;;;11.70;11.30;;;7.90;99.90;;;;;;5083578;28;20345;-81
2022/04/28 06:29:06;;;;;;;11.60;11.20;;;8.00;99.90;;;;;;5083760;28;20226;-81
2022/04/28 06:31:35;;;;;;;11.87;11.47;;;8.10;99.90;;;;;;5083504;28;20303;-81
2022/04/28 06:34:14;;;;;;;11.60;11.20;;;8.20;99.90;;;;;;5084399;28;20303;-81
2022/04/28 06:36:44;;;;;;;11.63;11.23;;;8.30;99.90;;;;;;5083845;28;20229;-82
2022/04/28 06:39:14;;;;;;;11.40;11.00;;;8.40;99.90;;;;;;5083460;28;20257;-82
2022/04/28 06:41:42;;;;;;;11.60;11.20;;;8.60;99.90;;;;;;5083277;28;20245;-81
2022/04/28 06:44:12;;;;;;;11.50;11.10;;;8.70;99.90;;;;;;5084181;28;20227;-82
2022/04/28 06:46:41;;;;;;;11.40;11.00;;;8.90;99.90;;;;;;5084101;28;20230;-81
2022/04/28 06:49:10;;;;;;;10.87;10.57;;;9.00;99.90;;;;;;5132331;22;20241;-83
2022/04/28 06:51:38;;;;;;;10.93;10.63;;;9.10;99.90;;;;;;5115846;28;20314;-83
2022/04/28 06:54:07;;;;;;;11.03;10.73;;;9.30;99.90;;;;;;5121136;28;20286;-81
2022/04/28 06:56:35;;;;;;;10.97;10.67;;;9.40;99.90;;;;;;5120915;28;20225;-80
2022/04/28 06:59:03;;;;;;;10.93;10.63;;;9.50;99.90;;;;;;5133830;28;20233;-81
2022/04/28 07:01:32;;;;;;;10.63;10.33;;;9.70;99.90;;;;;;5132983;28;20237;-81
2022/04/28 07:04:01;;;;;;;10.70;10.40;;;9.80;99.90;;;;;;5129215;28;20225;-81
2022/04/28 07:06:30;;;;;;;10.17;9.87;;;9.90;99.90;;;;;;5132388;28;20230;-82
2022/04/28 07:08:58;;;;;;;10.30;10.00;;;10.00;99.90;;;;;;5127318;28;20237;-81
2022/04/28 07:11:26;;;;;;;10.37;10.07;;;10.10;99.90;;;;;;5121981;27;20236;-81
2022/04/28 07:13:53;;;;;;;10.20;9.90;;;10.10;99.90;;;;;;5121704;28;20239;-81
2022/04/28 07:16:27;;;;;;;10.10;9.80;;;10.20;99.90;;;;;;5121609;28;20263;-80
2022/04/28 07:18:55;;;;;;;10.40;10.10;;;10.40;99.90;;;;;;5120431;28;20290;-80
2022/04/28 07:21:23;;;;;;;10.40;10.10;;;10.60;99.90;;;;;;5122275;28;20677;-78
2022/04/28 07:23:52;;;;;;;10.23;9.93;;;10.70;99.90;;;;;;5121683;28;20267;-82
2022/04/28 07:26:20;;;;;;;9.90;9.60;;;11.00;99.90;;;;;;5121080;28;20247;-79
2022/04/28 07:28:47;;;;;;;10.60;10.30;;;11.10;99.90;;;;;;5127831;28;20233;-81
2022/04/28 07:31:15;;;;;;;10.40;10.10;;;11.30;99.90;;;;;;5134718;28;20280;-80
2022/04/28 07:33:43;;;;;;;10.27;9.97;;;11.40;99.90;;;;;;5136429;28;20228;-81
2022/04/28 07:36:12;;;;;;;10.23;9.93;;;11.40;99.90;;;;;;5126786;28;20229;-83
2022/04/28 07:38:41;;;;;;;10.20;9.90;;;11.50;99.90;;;;;;5126042;28;20240;-84
2022/04/28 07:41:12;;;;;;;10.40;10.10;;;11.50;99.90;;;;;;5124327;28;20256;-82
2022/04/28 07:43:40;;;;;;;10.47;10.17;;;11.60;99.90;;;;;;5123212;28;20315;-82
2022/04/28 07:46:08;;;;;;;10.57;10.27;;;11.80;99.90;;;;;;5122119;28;20267;-81
2022/04/28 07:48:36;;;;;;;10.63;10.33;;;12.00;99.90;;;;;;5121279;28;20228;-82
2022/04/28 07:51:04;;;;;;;10.90;10.60;;;12.20;99.90;;;;;;5122721;28;20287;-82
2022/04/28 07:53:32;;;;;;;10.60;10.30;;;12.30;99.90;;;;;;5121532;28;20275;-81
2022/04/28 07:56:14;;;;;;;10.80;10.50;;;12.40;99.90;;;;;;5121814;28;20232;-82
2022/04/28 07:58:44;;;;;;;10.57;10.27;;;12.50;99.90;;;;;;5122572;28;20278;-83
2022/04/28 08:01:14;;;;;;;10.90;10.60;;;12.60;99.90;;;;;;5122306;28;20237;-83
2022/04/28 08:03:42;;;;;;;10.43;10.13;;;12.80;99.90;;;;;;5123224;28;20225;-83
2022/04/28 08:06:13;;;;;;;10.60;10.30;;;12.90;99.90;;;;;;5123594;28;20465;-82
2022/04/28 08:08:42;;;;;;;10.57;10.27;;;13.00;99.90;;;;;;5123832;28;20267;-83
2022/04/28 08:11:10;;;;;;;10.60;10.30;;;13.00;99.90;;;;;;5122920;28;20228;-83
2022/04/28 08:13:37;;;;;;;10.60;10.30;;;13.20;99.90;;;;;;5122871;28;20228;-83
2022/04/28 08:16:07;;;;;;;10.63;10.33;;;13.50;99.90;;;;;;5122904;28;20319;-82
2022/04/28 08:18:37;;;;;;;10.50;10.20;;;13.60;99.90;;;;;;5123042;28;20295;-81
2022/04/28 08:21:08;;;;;;;10.77;10.47;;;13.60;99.90;;;;;;5122652;28;20229;-83
2022/04/28 08:23:37;;;;;;;10.60;10.30;;;13.80;99.90;;;;;;5122540;28;20217;-81
2022/04/28 08:26:05;;;;;;;10.50;10.20;;;14.00;99.90;;;;;;5120186;28;20405;-81
2022/04/28 08:28:34;;;;;;;10.40;10.10;;;14.20;99.90;;;;;;5120917;28;20228;-82
2022/04/28 08:31:03;;;;;;;10.70;10.40;;;14.40;99.90;;;;;;5119815;28;20282;-83
2022/04/28 08:33:33;;;;;;;10.40;10.10;;;14.60;99.90;;;;;;5121968;28;20232;-82
2022/04/28 08:36:01;;;;;;;10.50;10.20;;;14.80;99.90;;;;;;5120983;28;20229;-81
2022/04/28 08:38:28;;;;;;;10.98;10.68;;;15.10;99.90;;;;;;5120004;28;20282;-82
2022/04/28 08:41:02;;;;;;;10.63;10.32;;;15.30;99.90;;;;;;5121304;28;20225;-83
2022/04/28 08:43:31;;;;;;;10.75;10.45;;;15.50;99.90;;;;;;5119445;28;20270;-82
2022/04/28 08:48:53;;;;;;;10.93;10.63;;;15.90;99.90;;;;;;5120245;28;20220;-82
2022/04/28 08:51:24;;;;;;;10.95;10.65;;;16.30;99.90;;;;;;5120257;28;20294;-81
2022/04/28 08:53:54;;;;;;;10.48;10.18;;;16.50;99.90;;;;;;5120327;28;20683;-82
2022/04/28 08:56:24;;;;;;;10.52;10.23;;;16.60;99.90;;;;;;5121822;28;20228;-82
2022/04/28 08:58:52;;;;;;;10.60;10.30;;;16.90;99.90;;;;;;5120774;28;20247;-82
2022/04/28 09:01:27;;;;;;;10.38;10.07;;;17.20;99.90;;;;;;5133371;28;20217;-84
2022/04/28 09:03:57;;;;;;;10.35;10.05;;;17.50;99.90;;;;;;5132837;28;20280;-83
2022/04/28 09:06:29;;;;;;;10.40;10.10;;;17.90;99.90;;;;;;5127927;28;20228;-83
2022/04/28 09:08:58;;;;;;;10.20;9.90;;;18.20;99.90;;;;;;5128335;27;20233;-84
2022/04/28 09:11:29;;;;;;;10.18;9.88;;;18.20;99.90;;;;;;5125635;28;20258;-83
2022/04/28 09:14:11;;;;;;;10.57;10.27;;;18.10;99.90;;;;;;5124960;28;20225;-82
2022/04/28 09:16:42;;;;;;;10.55;10.25;;;18.30;99.90;;;;;;5124279;28;20224;-81
2022/04/28 09:19:14;;;;;;;10.23;9.93;;;18.30;99.90;;;;;;5123250;28;20660;-82
2022/04/28 09:21:43;;;;;;;10.25;9.95;;;18.30;99.90;;;;;;5123079;28;20215;-82
2022/04/28 09:24:13;;;;;;;10.40;10.10;;;18.60;99.90;;;;;;5124112;28;20216;-82
2022/04/28 09:26:42;;;;;;;10.43;10.13;;;18.90;99.90;;;;;;5123839;28;20256;-82
2022/04/28 09:29:14;;;;;;;10.60;10.30;;;18.80;99.90;;;;;;5124381;28;20296;-81
2022/04/28 09:31:44;;;;;;;10.40;10.10;;;18.80;99.90;;;;;;5124716;28;20250;-86
2022/04/28 09:34:19;;;;;;;10.40;10.10;;;18.60;99.90;;;;;;5124987;28;20236;-83
2022/04/28 09:36:56;;;;;;;10.40;10.10;;;18.30;99.90;;;;;;5125978;28;20232;-82
2022/04/28 09:42:31;;;;;;;10.43;10.13;;;19.10;99.90;;;;;;5126311;28;20197;-82
2022/04/28 09:45:01;;;;;;;10.80;10.50;;;19.60;99.90;;;;;;5124618;28;20286;-82
2022/04/28 09:47:31;;;;;;;10.90;10.60;;;19.80;99.90;;;;;;5125762;28;20237;-83
2022/04/28 09:50:01;;;;;;;10.80;10.50;;;19.60;99.90;;;;;;5125202;28;20228;-82
2022/04/28 09:52:33;;;;;;;10.50;10.20;;;19.80;99.90;;;;;;5125214;28;20224;-82
2022/04/28 09:55:05;;;;;;;10.50;10.20;;;19.50;99.90;;;;;;5124973;28;20260;-83
2022/04/28 09:57:33;;;;;;;10.80;10.50;;;19.20;99.90;;;;;;5125094;28;20229;-83
2022/04/28 10:00:01;;;;;;;10.32;10.02;;;18.90;99.90;;;;;;5124755;28;20237;-82
2022/04/28 10:02:30;;;;;;;10.52;10.23;;;18.60;99.90;;;;;;5124901;28;20237;-84
2022/04/28 10:05:00;;;;;;;10.30;10.00;;;18.40;99.90;;;;;;5123878;28;20225;-83
2022/04/28 10:07:29;;;;;;;10.50;10.20;;;18.30;99.90;;;;;;5125015;28;20455;-83
2022/04/28 10:09:57;;;;;;;10.52;10.23;;;18.20;99.90;;;;;;5124794;28;20236;-83
2022/04/28 10:12:27;;;;;;;10.77;10.48;;;18.50;99.90;;;;;;5124420;28;20229;-83
2022/04/28 10:14:56;;;;;;;10.60;10.30;;;19.20;99.90;;;;;;5123964;28;20245;-82
2022/04/28 10:17:30;;;;;;;10.50;10.20;;;19.80;99.90;;;;;;5124561;28;20221;-82
2022/04/28 10:20:04;;;;;;;10.43;10.13;;;20.10;99.90;;;;;;5124556;27;20248;-81
2022/04/28 10:22:35;;;;;;;10.80;10.50;;;20.20;99.90;;;;;;5127978;28;20242;-81
2022/04/28 10:33:27;;;;;;;10.38;10.07;;;21.20;99.90;;;;;;5139574;27;20193;-85
2022/04/28 10:36:01;;;;;;;10.50;10.20;;;21.30;99.90;;;;;;5137420;27;20205;-82
2022/04/28 10:38:31;;;;;;;10.00;9.70;;;20.90;99.90;;;;;;5132643;28;20264;-83
2022/04/28 10:41:03;;;;;;;10.00;9.70;;;20.40;99.90;;;;;;5129652;28;20232;-83
2022/04/28 10:43:42;;;;;;;10.50;10.20;;;19.80;99.90;;;;;;5123258;28;20232;-82
2022/04/28 10:46:33;;;;;;;10.30;10.00;;;19.30;99.90;;;;;;5127087;28;20205;-83
2022/04/28 10:49:05;;;;;;;10.10;9.80;;;18.90;99.90;;;;;;5125878;28;20232;-83
2022/04/28 10:51:46;;;;;;;10.10;9.80;;;18.90;99.90;;;;;;5127047;27;20223;-82
2022/04/28 10:54:19;;;;;;;10.70;10.40;;;19.10;99.90;;;;;;5126068;28;20216;-82
2022/04/28 10:57:03;;;;;;;10.73;10.43;;;19.30;99.90;;;;;;5125594;28;20235;-80
2022/04/28 10:59:42;;;;;;;10.75;10.45;;;19.80;99.90;;;;;;5135609;28;20232;-82
2022/04/28 11:02:43;;;;;;;10.80;10.50;;;20.20;99.90;;;;;;5137209;28;20232;-82
2022/04/28 11:05:37;;;;;;;10.95;10.65;;;20.70;99.90;;;;;;5136558;28;20385;-85
2022/04/28 11:08:26;;;;;;;10.88;10.57;;;21.20;99.90;;;;;;5129807;28;20329;-82
2022/04/28 11:11:13;;;;;;;11.00;10.70;;;21.50;99.90;;;;;;5128970;28;20221;-82
2022/04/28 11:13:51;;;;;;;10.82;10.52;;;22.00;99.90;;;;;;5132483;27;20240;-82
2022/04/28 11:16:20;;;;;;;11.25;10.95;;;22.50;99.90;;;;;;5127396;28;20232;-81
2022/04/28 11:18:47;;;;;;;11.10;10.80;;;22.90;99.90;;;;;;5123074;28;20220;-83
2022/04/28 11:21:16;;;;;;;11.00;10.70;;;22.90;99.90;;;;;;5126587;28;20235;-83
2022/04/28 11:23:48;;;;;;;11.02;10.73;;;22.60;99.90;;;;;;5129397;28;20254;-83
2022/04/28 11:26:20;;;;;;;10.98;10.68;;;22.20;99.90;;;;;;5130540;28;20749;-83
2022/04/28 11:28:58;;;;;;;10.57;10.27;;;21.70;99.90;;;;;;5132193;28;20228;-82
2022/04/28 11:31:26;;;;;;;11.10;10.80;;;21.70;99.90;;;;;;5129944;27;20263;-84
2022/04/28 11:33:55;;;;;;;11.18;10.88;;;22.10;99.90;;;;;;5128762;28;20236;-84
2022/04/28 11:36:27;;;;;;;10.95;10.65;;;22.50;99.90;;;;;;5138053;27;20231;-83
2022/04/28 11:39:02;;;;;;;11.00;10.70;;;22.90;99.90;;;;;;5138178;27;20239;-83
2022/04/28 11:41:33;;;;;;;11.23;10.93;;;23.00;99.90;;;;;;5126700;28;20228;-83
2022/04/28 11:44:11;;;;;;;10.90;10.60;;;22.60;99.90;;;;;;5127045;28;20301;-83
2022/04/28 11:46:50;;;;;;;10.90;10.60;;;22.80;99.90;;;;;;5127196;28;20239;-83
2022/04/28 11:49:20;;;;;;;10.80;10.50;;;23.10;99.90;;;;;;5123850;28;20233;-83
2022/04/28 11:51:48;;;;;;;10.93;10.63;;;23.40;99.90;;;;;;5123332;28;20290;-83
2022/04/28 11:54:27;;;;;;;10.52;10.23;;;23.60;99.90;;;;;;5123710;28;20232;-84
2022/04/28 11:57:11;;;;;;;10.35;10.05;;;23.70;99.90;;;;;;5123804;28;20251;-83
2022/04/28 11:59:43;;;;;;;10.82;10.52;;;23.90;99.90;;;;;;5121423;28;20301;-83
2022/04/28 12:02:29;;;;;;;11.13;10.82;;;23.90;99.90;;;;;;5124039;28;20236;-83
2022/04/28 12:05:01;;;;;;;10.90;10.60;;;24.20;99.90;;;;;;5123548;28;21014;-83
2022/04/28 12:07:31;;;;;;;10.82;10.52;;;24.20;99.90;;;;;;5123105;28;20232;-83
2022/04/28 12:15:36;;;;;;;10.38;10.07;;;23.10;99.90;;;;;;5130742;28;20295;-82
2022/04/28 12:20:59;;;;;;;10.40;10.10;;;21.10;99.90;;;;;;5126340;28;20213;-83
2022/04/28 12:23:39;;;;;;;10.32;10.02;;;21.60;99.90;;;;;;5125524;28;20232;-83
2022/04/28 12:26:15;;;;;;;10.35;10.05;;;22.40;99.90;;;;;;5124249;28;20251;-83
2022/04/28 12:28:45;;;;;;;10.30;10.00;;;22.80;99.90;;;;;;5123423;28;20293;-82
2022/04/28 12:31:16;;;;;;;10.40;10.10;;;23.10;99.90;;;;;;5122267;28;20247;-82
2022/04/28 12:33:51;;;;;;;10.70;10.40;;;23.50;99.90;;;;;;5125380;28;20224;-82
2022/04/28 12:36:21;;;;;;;10.70;10.40;;;23.50;99.90;;;;;;5122405;28;20224;-83
2022/04/28 12:38:52;;;;;;;10.55;10.25;;;23.40;99.90;;;;;;5122424;28;20232;-82
2022/04/28 12:41:30;;;;;;;10.70;10.40;;;23.50;99.90;;;;;;5122857;28;20217;-82
2022/04/28 12:43:59;;;;;;;10.15;9.85;;;23.20;99.90;;;;;;5123363;28;20239;-83
2022/04/28 12:46:38;;;;;;;10.32;10.02;;;23.30;99.90;;;;;;5121845;28;20232;-83
2022/04/28 15:14:23;;;;;;;10.90;10.60;;;26.40;93.00;;;;;;6356159;22;20219;-83
2022/04/28 15:40:17;;;;;;;10.15;9.85;;;25.20;93.00;;;;;;6350238;22;20204;-80
2022/04/28 16:14:45;;;;;;;10.57;10.27;;;24.80;92.20;;;;;;6259774;22;20190;-82
2022/04/28 16:28:15;;;;;;;10.50;10.20;;;24.80;91.40;;;;;;6055104;23;20190;-82
2022/04/28 18:51:14;;;;;;;10.30;10.00;;;17.70;99.90;;;;;;6276931;22;20203;-83
2022/04/28 18:53:42;;;;;;;9.65;9.35;;;17.50;99.90;;;;;;6398079;22;20249;-83
2022/04/28 18:56:12;;;;;;;9.65;9.35;;;17.40;99.90;;;;;;6390503;22;20191;-83
2022/04/28 18:58:40;;;;;;;9.48;9.18;;;17.30;99.90;;;;;;6389981;22;20225;-84
2022/04/28 19:01:10;;;;;;;9.70;9.40;;;17.20;99.90;;;;;;6388975;22;20261;-83
2022/04/28 19:03:42;;;;;;;9.85;9.55;;;17.10;99.90;;;;;;6388582;22;20195;-83
2022/04/28 19:06:13;;;;;;;10.10;9.80;;;17.00;99.90;;;;;;6391735;22;20194;-84
2022/04/28 19:08:42;;;;;;;9.90;9.60;;;16.90;99.90;;;;;;6388396;22;20200;-84
2022/04/28 19:11:09;;;;;;;9.68;9.38;;;16.80;99.90;;;;;;6390091;22;20199;-85
2022/04/28 19:13:37;;;;;;;9.60;9.30;;;16.60;99.90;;;;;;6390165;22;20271;-84
2022/04/28 19:16:06;;;;;;;9.57;9.27;;;16.30;99.90;;;;;;6394852;22;20198;-84
2022/04/28 19:18:36;;;;;;;9.43;9.13;;;16.20;99.90;;;;;;6405300;22;20275;-83
2022/04/28 19:21:04;;;;;;;9.50;9.20;;;16.20;99.90;;;;;;6404824;22;20191;-83
2022/04/28 19:23:36;;;;;;;9.40;9.10;;;16.10;99.90;;;;;;6405205;22;20188;-83
2022/04/28 19:26:04;;;;;;;9.35;9.05;;;16.00;99.90;;;;;;6404827;22;20218;-83
2022/04/28 19:28:32;;;;;;;9.30;9.00;;;15.90;99.90;;;;;;6404553;22;20182;-84
2022/04/28 19:31:02;;;;;;;9.77;9.48;;;15.80;99.90;;;;;;6402821;22;20206;-83
2022/04/28 19:33:35;;;;;;;9.63;9.32;;;15.70;99.90;;;;;;6401249;22;20195;-84
2022/04/28 19:36:04;;;;;;;9.73;9.43;;;15.50;99.90;;;;;;6391515;22;20195;-82
2022/04/28 19:38:36;;;;;;;9.60;9.30;;;15.50;99.90;;;;;;6387021;22;20212;-84
2022/04/28 19:41:04;;;;;;;9.07;8.85;;;15.30;99.90;;;;;;6389825;22;20192;-83
2022/04/28 19:43:34;;;;;;;9.43;9.13;;;15.20;99.90;;;;;;6388541;22;20206;-84
2022/04/28 19:46:03;;;;;;;9.65;9.35;;;15.10;99.90;;;;;;6391077;22;20198;-84
2022/04/28 19:48:31;;;;;;;9.63;9.32;;;15.00;99.90;;;;;;6395979;22;20195;-82